createdAt,value
2022-09-06T00:04:09.669Z,2.15
2022-09-06T00:09:14.142Z,3.02
2022-09-06T00:14:21.191Z,2.37
2022-09-06T00:19:28.392Z,1.93
2022-09-06T00:24:35.419Z,3.10
2022-09-06T00:29:42.641Z,3.20
2022-09-06T00:34:49.731Z,2.44
2022-09-06T00:39:56.925Z,5.59
2022-09-06T00:45:03.829Z,3.15
2022-09-06T00:50:11.019Z,3.02
2022-09-06T00:55:18.019Z,3.17
2022-09-06T01:00:25.127Z,3.27
2022-09-06T01:05:32.172Z,1.97
2022-09-06T01:10:39.333Z,2.76
2022-09-06T01:15:46.347Z,3.69
2022-09-06T01:20:53.503Z,2.79
2022-09-06T01:26:00.535Z,3.26
2022-09-06T01:31:07.656Z,3.95
2022-09-06T01:36:14.609Z,3.25
2022-09-06T01:41:21.906Z,2.55
2022-09-06T01:46:28.999Z,3.61
2022-09-06T01:51:36.200Z,2.54
2022-09-06T01:56:43.245Z,2.56
2022-09-06T02:01:50.546Z,2.25
2022-09-06T02:06:57.624Z,2.56
2022-09-06T02:12:04.825Z,4.06
2022-09-06T02:17:11.797Z,3.20
2022-09-06T02:22:19.030Z,3.43
2022-09-06T02:27:26.034Z,2.47
2022-09-06T02:32:33.273Z,2.41
2022-09-06T02:37:40.308Z,2.95
2022-09-06T02:42:47.461Z,3.55
2022-09-06T02:47:54.522Z,4.79
2022-09-06T02:53:01.745Z,7.33
2022-09-06T02:58:08.843Z,5.68
2022-09-06T03:03:16.009Z,6.81
2022-09-06T03:08:23.056Z,10.16
2022-09-06T03:13:30.328Z,7.44
2022-09-06T03:18:37.383Z,5.92
2022-09-06T03:23:44.486Z,8.33
2022-09-06T03:28:51.516Z,10.05
2022-09-06T03:33:58.593Z,7.67
2022-09-06T03:39:05.624Z,10.44
2022-09-06T03:44:12.761Z,9.88
2022-09-06T03:49:19.867Z,8.72
2022-09-06T03:54:27.013Z,12.67
2022-09-06T03:59:34.081Z,13.02
2022-09-06T04:04:41.235Z,11.30
2022-09-06T04:09:48.355Z,10.30
2022-09-06T04:14:55.570Z,9.34
2022-09-06T04:20:02.757Z,9.64
2022-09-06T04:25:09.992Z,10.19
2022-09-06T04:30:17.071Z,10.83
2022-09-06T04:35:24.249Z,7.40
2022-09-06T04:40:31.368Z,7.85
2022-09-06T04:45:38.871Z,9.08
2022-09-06T04:50:45.832Z,7.51
2022-09-06T04:55:53.092Z,6.98
2022-09-06T05:01:00.204Z,5.37
2022-09-06T05:06:07.281Z,4.65
2022-09-06T05:11:14.276Z,7.12
2022-09-06T05:16:21.501Z,3.73
2022-09-06T05:21:28.545Z,4.54
2022-09-06T05:26:35.695Z,12.48
2022-09-06T05:31:42.780Z,8.44
2022-09-06T05:36:51.147Z,10.98
2022-09-06T05:41:58.231Z,8.14
2022-09-06T05:47:05.428Z,7.53
2022-09-06T05:52:12.455Z,8.92
2022-09-06T05:57:19.525Z,7.12
2022-09-06T06:02:26.842Z,6.52
2022-09-06T06:07:33.786Z,6.48
2022-09-06T06:12:40.894Z,3.99
2022-09-06T06:17:47.919Z,4.24
2022-09-06T06:22:55.105Z,3.67
2022-09-06T06:28:02.119Z,3.24
2022-09-06T06:33:09.397Z,2.91
2022-09-06T06:38:16.429Z,4.53
2022-09-06T06:43:23.612Z,3.09
2022-09-06T06:48:30.589Z,3.99
2022-09-06T06:53:37.833Z,3.99
2022-09-06T06:58:44.926Z,3.13
2022-09-06T07:03:52.059Z,3.14
2022-09-06T07:08:59.125Z,3.89
2022-09-06T07:14:07.348Z,3.20
2022-09-06T07:24:20.829Z,2.94
2022-09-06T07:29:27.818Z,5.45
2022-09-06T07:34:34.821Z,3.22
2022-09-06T07:39:41.953Z,4.39
2022-09-06T07:44:49.234Z,3.80
2022-09-06T07:55:04.484Z,3.12
2022-09-06T08:00:11.448Z,3.70
2022-09-06T08:10:25.299Z,2.48
2022-09-06T08:15:33.535Z,2.66
2022-09-06T08:20:39.144Z,2.78
2022-09-06T08:25:46.324Z,2.87
2022-09-06T08:30:53.363Z,4.68
2022-09-06T08:36:00.507Z,2.75
2022-09-06T08:41:07.626Z,1.78
2022-09-06T08:46:14.744Z,1.41
2022-09-06T08:51:21.802Z,1.53
2022-09-06T08:56:28.831Z,1.78
2022-09-06T09:01:35.878Z,3.72
2022-09-06T09:06:42.850Z,2.57
2022-09-06T09:11:50.109Z,3.21
2022-09-06T09:16:57.130Z,1.59
2022-09-06T09:22:04.263Z,1.88
2022-09-06T09:27:11.357Z,2.18
2022-09-06T09:32:18.473Z,1.26
2022-09-06T09:37:48.682Z,3.31
2022-09-06T09:42:32.194Z,1.36
2022-09-06T09:47:39.244Z,3.36
2022-09-06T09:52:46.448Z,2.34
2022-09-06T09:57:53.466Z,2.08
2022-09-06T10:03:00.712Z,1.06
2022-09-06T10:08:07.666Z,1.46
2022-09-06T10:13:14.919Z,1.55
2022-09-06T10:18:21.917Z,1.81
2022-09-06T10:28:35.722Z,1.68
2022-09-06T10:33:42.790Z,2.31
2022-09-06T10:38:49.844Z,2.50
2022-09-06T10:43:56.983Z,1.14
2022-09-06T10:49:03.976Z,2.05
2022-09-06T10:54:11.156Z,2.07
2022-09-06T10:59:38.799Z,1.77
2022-09-06T11:04:24.932Z,1.38
2022-09-06T11:09:31.929Z,1.47
2022-09-06T11:14:39.186Z,2.18
2022-09-06T11:19:46.202Z,2.62
2022-09-06T11:24:53.387Z,1.63
2022-09-06T11:30:00.438Z,2.04
2022-09-06T11:35:07.432Z,1.24
2022-09-06T11:40:29.935Z,0.95
2022-09-06T11:45:21.370Z,1.13
2022-09-06T11:50:28.365Z,1.94
2022-09-06T11:55:35.583Z,1.62
2022-09-06T12:00:42.735Z,1.08
2022-09-06T12:05:49.926Z,1.60
2022-09-06T12:10:56.995Z,2.02
2022-09-06T12:16:04.457Z,1.23
2022-09-06T12:21:11.403Z,1.07
2022-09-06T12:26:18.479Z,0.78
2022-09-06T12:31:25.595Z,1.64
2022-09-06T12:36:32.638Z,1.57
2022-09-06T12:41:43.251Z,1.24
2022-09-06T12:46:46.481Z,0.83
2022-09-06T12:51:53.516Z,0.87
2022-09-06T12:57:00.571Z,2.39
2022-09-06T13:02:07.745Z,2.08
2022-09-06T13:07:14.742Z,1.15
2022-09-06T13:12:21.796Z,1.00
2022-09-06T13:17:28.801Z,1.02
2022-09-06T13:22:35.999Z,0.90
2022-09-06T13:27:43.086Z,0.78
2022-09-06T13:32:50.409Z,1.08
2022-09-06T13:37:57.920Z,0.71
2022-09-06T13:43:05.543Z,1.37
2022-09-06T13:48:28.374Z,1.48
2022-09-06T13:53:19.565Z,0.79
2022-09-06T13:58:26.670Z,0.81
2022-09-06T14:03:33.879Z,1.36
2022-09-06T14:09:05.933Z,2.11
2022-09-06T14:13:47.737Z,0.97
2022-09-06T14:18:56.019Z,1.08
2022-09-06T14:24:04.602Z,1.67
2022-09-06T14:29:10.027Z,1.20
2022-09-06T14:34:17.220Z,2.03
2022-09-06T14:39:24.336Z,1.30
2022-09-06T14:44:31.337Z,1.21
2022-09-06T14:49:38.437Z,1.41
2022-09-06T14:54:45.595Z,2.12
2022-09-06T14:59:52.643Z,2.27
2022-09-06T15:04:59.876Z,2.10
2022-09-06T15:10:06.994Z,2.61
2022-09-06T15:15:14.213Z,2.11
2022-09-06T15:20:21.215Z,3.02
2022-09-06T15:25:28.419Z,1.79
2022-09-06T15:30:37.288Z,1.99
2022-09-06T15:35:44.659Z,3.76
2022-09-06T15:40:51.892Z,1.58
2022-09-06T15:45:59.138Z,2.81
2022-09-06T15:51:06.089Z,2.49
2022-09-06T15:56:13.150Z,1.73
2022-09-06T16:01:20.312Z,1.77
2022-09-06T16:06:28.207Z,2.42
2022-09-06T16:11:34.043Z,3.35
2022-09-06T16:16:41.433Z,3.33
2022-09-06T16:21:48.445Z,3.75
2022-09-06T16:26:55.580Z,2.73
2022-09-06T16:32:02.559Z,3.14
2022-09-06T16:37:09.705Z,2.13
2022-09-06T16:42:16.757Z,2.66
2022-09-06T16:47:23.994Z,4.23
2022-09-06T16:52:31.010Z,2.21
2022-09-06T16:57:38.151Z,3.02
2022-09-06T17:02:47.210Z,2.02
2022-09-06T17:07:51.849Z,2.65
2022-09-06T17:12:58.816Z,4.45
2022-09-06T17:18:06.091Z,2.57
2022-09-06T17:23:14.225Z,2.62
2022-09-06T17:28:19.816Z,3.20
2022-09-06T17:33:26.891Z,3.54
2022-09-06T17:38:34.025Z,2.10
2022-09-06T17:43:41.036Z,1.31
2022-09-06T17:48:48.222Z,3.28
2022-09-06T17:53:55.236Z,2.57
2022-09-06T17:59:02.375Z,1.93
2022-09-06T18:04:09.374Z,3.02
2022-09-06T18:09:16.577Z,2.08
2022-09-06T18:14:23.529Z,3.09
2022-09-06T18:19:30.690Z,1.67
2022-09-06T18:24:37.667Z,1.71
2022-09-06T18:29:44.885Z,1.81
2022-09-06T18:34:51.866Z,1.72
2022-09-06T18:39:59.152Z,2.43
2022-09-06T18:45:06.175Z,2.05
2022-09-06T18:50:13.381Z,2.10
2022-09-06T18:55:20.373Z,3.04
2022-09-06T19:00:27.611Z,1.49
2022-09-06T19:05:34.692Z,2.68
2022-09-06T19:10:41.924Z,1.81
2022-09-06T19:15:48.950Z,7.99
2022-09-06T19:20:55.946Z,4.29
2022-09-06T19:26:02.970Z,2.86
2022-09-06T19:31:10.148Z,4.50
2022-09-06T19:36:17.129Z,3.10
2022-09-06T19:41:24.441Z,2.33
2022-09-06T19:46:31.494Z,3.15
2022-09-06T19:51:38.592Z,2.10
2022-09-06T19:56:45.593Z,2.22
2022-09-06T20:01:52.746Z,2.80
2022-09-06T20:06:59.897Z,5.05
2022-09-06T20:12:07.055Z,3.81
2022-09-06T20:17:32.899Z,2.69
2022-09-06T20:22:20.676Z,2.09
2022-09-06T20:27:27.669Z,3.66
2022-09-06T20:32:35.258Z,4.16
2022-09-06T20:37:42.314Z,2.85
2022-09-06T20:42:49.482Z,4.70
2022-09-06T20:47:56.478Z,3.11
2022-09-06T20:53:03.706Z,2.71
2022-09-06T20:58:10.716Z,3.79
2022-09-06T21:03:17.900Z,5.98
2022-09-06T21:08:25.067Z,5.37
2022-09-06T21:13:31.992Z,4.34
2022-09-06T21:18:50.683Z,4.07
2022-09-06T21:23:47.670Z,4.77
2022-09-06T21:28:56.016Z,4.10
2022-09-06T21:34:03.067Z,4.25
2022-09-06T21:39:10.087Z,3.07
2022-09-06T21:44:17.141Z,3.07
2022-09-06T21:49:25.020Z,3.72
2022-09-06T21:54:32.212Z,3.32
2022-09-06T21:59:39.228Z,3.38
2022-09-06T22:04:46.279Z,3.29
2022-09-06T22:09:53.688Z,5.37
2022-09-06T22:15:00.649Z,3.67
2022-09-06T22:20:07.787Z,5.22
2022-09-06T22:25:14.792Z,3.45
2022-09-06T22:30:25.611Z,3.78
2022-09-06T22:35:28.363Z,5.18
2022-09-06T22:40:35.585Z,3.65
2022-09-06T22:45:42.599Z,4.02
2022-09-06T22:50:49.711Z,3.06
2022-09-06T22:55:56.700Z,4.18
2022-09-06T23:01:03.828Z,5.09
2022-09-06T23:06:10.768Z,5.58
2022-09-06T23:11:17.906Z,5.66
2022-09-06T23:16:24.937Z,4.44
2022-09-06T23:21:32.121Z,3.96
2022-09-06T23:26:39.088Z,4.32
2022-09-06T23:31:46.291Z,4.09
2022-09-06T23:36:53.235Z,3.96
2022-09-06T23:42:00.499Z,4.24
2022-09-06T23:47:07.485Z,3.68
2022-09-06T23:52:16.451Z,4.47
2022-09-06T23:57:23.147Z,3.64
